sensor_id;sensor_type;location;lat;lon;timestamp;P1;durP1;ratioP1;P2;durP2;ratioP2
31210;SDS011;17836;50.948;3.946;2023-03-01T00:01:54;14.38;;;11.75;;
31210;SDS011;17836;50.948;3.946;2023-03-01T00:04:19;14.07;;;11.80;;
31210;SDS011;17836;50.948;3.946;2023-03-01T00:06:45;13.77;;;11.32;;
31210;SDS011;17836;50.948;3.946;2023-03-01T00:09:13;12.60;;;11.15;;
31210;SDS011;17836;50.948;3.946;2023-03-01T00:11:39;13.43;;;10.60;;
31210;SDS011;17836;50.948;3.946;2023-03-01T00:14:05;13.63;;;10.75;;
31210;SDS011;17836;50.948;3.946;2023-03-01T00:16:32;12.52;;;11.00;;
31210;SDS011;17836;50.948;3.946;2023-03-01T00:18:58;12.90;;;11.02;;
31210;SDS011;17836;50.948;3.946;2023-03-01T00:21:24;14.52;;;11.18;;
31210;SDS011;17836;50.948;3.946;2023-03-01T00:23:50;14.35;;;11.50;;
31210;SDS011;17836;50.948;3.946;2023-03-01T00:26:15;14.60;;;11.20;;
31210;SDS011;17836;50.948;3.946;2023-03-01T00:28:41;13.55;;;11.25;;
31210;SDS011;17836;50.948;3.946;2023-03-01T00:31:13;13.98;;;10.90;;
31210;SDS011;17836;50.948;3.946;2023-03-01T00:33:41;13.48;;;11.48;;
31210;SDS011;17836;50.948;3.946;2023-03-01T00:36:06;15.13;;;11.10;;
31210;SDS011;17836;50.948;3.946;2023-03-01T00:38:36;12.38;;;10.52;;
31210;SDS011;17836;50.948;3.946;2023-03-01T00:41:09;12.20;;;10.90;;
31210;SDS011;17836;50.948;3.946;2023-03-01T00:43:34;12.50;;;9.77;;
31210;SDS011;17836;50.948;3.946;2023-03-01T00:46:11;10.77;;;9.77;;
31210;SDS011;17836;50.948;3.946;2023-03-01T00:48:36;12.77;;;10.38;;
31210;SDS011;17836;50.948;3.946;2023-03-01T00:51:08;11.25;;;10.15;;
31210;SDS011;17836;50.948;3.946;2023-03-01T00:53:39;11.70;;;10.48;;
31210;SDS011;17836;50.948;3.946;2023-03-01T00:56:07;15.13;;;11.90;;
31210;SDS011;17836;50.948;3.946;2023-03-01T00:58:33;12.88;;;11.57;;
31210;SDS011;17836;50.948;3.946;2023-03-01T01:00:58;16.63;;;11.70;;
31210;SDS011;17836;50.948;3.946;2023-03-01T01:03:24;11.90;;;10.70;;
31210;SDS011;17836;50.948;3.946;2023-03-01T01:05:52;13.73;;;10.88;;
31210;SDS011;17836;50.948;3.946;2023-03-01T01:08:18;13.75;;;11.20;;
31210;SDS011;17836;50.948;3.946;2023-03-01T01:10:44;13.63;;;10.75;;
31210;SDS011;17836;50.948;3.946;2023-03-01T01:13:09;15.20;;;11.07;;
31210;SDS011;17836;50.948;3.946;2023-03-01T01:15:35;14.38;;;10.88;;
31210;SDS011;17836;50.948;3.946;2023-03-01T01:18:00;13.85;;;10.75;;
31210;SDS011;17836;50.948;3.946;2023-03-01T01:20:28;13.27;;;11.00;;
31210;SDS011;17836;50.948;3.946;2023-03-01T01:22:53;14.02;;;11.35;;
31210;SDS011;17836;50.948;3.946;2023-03-01T01:25:18;14.18;;;11.13;;
31210;SDS011;17836;50.948;3.946;2023-03-01T01:27:44;12.85;;;10.98;;
31210;SDS011;17836;50.948;3.946;2023-03-01T01:30:11;12.27;;;11.00;;
31210;SDS011;17836;50.948;3.946;2023-03-01T01:32:36;11.85;;;10.65;;
31210;SDS011;17836;50.948;3.946;2023-03-01T01:35:02;11.23;;;10.05;;
31210;SDS011;17836;50.948;3.946;2023-03-01T01:37:27;13.07;;;11.38;;
31210;SDS011;17836;50.948;3.946;2023-03-01T01:39:59;11.45;;;9.25;;
31210;SDS011;17836;50.948;3.946;2023-03-01T01:42:25;14.85;;;10.13;;
31210;SDS011;17836;50.948;3.946;2023-03-01T01:47:35;11.00;;;9.85;;
31210;SDS011;17836;50.948;3.946;2023-03-01T01:50:00;12.38;;;10.70;;
31210;SDS011;17836;50.948;3.946;2023-03-01T01:57:26;10.73;;;9.73;;
31210;SDS011;17836;50.948;3.946;2023-03-01T01:59:53;11.73;;;9.45;;
31210;SDS011;17836;50.948;3.946;2023-03-01T02:02:20;11.70;;;10.40;;
31210;SDS011;17836;50.948;3.946;2023-03-01T02:04:46;11.43;;;9.68;;
31210;SDS011;17836;50.948;3.946;2023-03-01T02:07:22;12.00;;;9.95;;
31210;SDS011;17836;50.948;3.946;2023-03-01T02:09:49;12.40;;;9.50;;
31210;SDS011;17836;50.948;3.946;2023-03-01T02:12:15;11.68;;;10.48;;
31210;SDS011;17836;50.948;3.946;2023-03-01T02:14:42;12.73;;;9.68;;
31210;SDS011;17836;50.948;3.946;2023-03-01T02:17:07;10.80;;;9.48;;
31210;SDS011;17836;50.948;3.946;2023-03-01T02:22:24;12.70;;;10.07;;
31210;SDS011;17836;50.948;3.946;2023-03-01T02:24:54;11.38;;;10.02;;
31210;SDS011;17836;50.948;3.946;2023-03-01T02:27:26;11.70;;;10.45;;
31210;SDS011;17836;50.948;3.946;2023-03-01T02:29:54;11.30;;;9.55;;
31210;SDS011;17836;50.948;3.946;2023-03-01T02:32:19;11.32;;;9.48;;
31210;SDS011;17836;50.948;3.946;2023-03-01T02:34:51;11.13;;;10.00;;
31210;SDS011;17836;50.948;3.946;2023-03-01T02:37:19;10.63;;;9.60;;
31210;SDS011;17836;50.948;3.946;2023-03-01T02:39:51;14.48;;;10.65;;
31210;SDS011;17836;50.948;3.946;2023-03-01T02:42:20;12.02;;;10.15;;
31210;SDS011;17836;50.948;3.946;2023-03-01T02:44:48;13.25;;;10.05;;
31210;SDS011;17836;50.948;3.946;2023-03-01T02:47:13;12.07;;;10.88;;
31210;SDS011;17836;50.948;3.946;2023-03-01T02:49:39;11.93;;;10.65;;
31210;SDS011;17836;50.948;3.946;2023-03-01T02:52:07;11.45;;;10.27;;
31210;SDS011;17836;50.948;3.946;2023-03-01T02:54:40;18.40;;;10.85;;
31210;SDS011;17836;50.948;3.946;2023-03-01T02:59:33;13.30;;;10.15;;
31210;SDS011;17836;50.948;3.946;2023-03-01T03:02:04;15.73;;;11.32;;
31210;SDS011;17836;50.948;3.946;2023-03-01T03:04:29;12.82;;;10.30;;
31210;SDS011;17836;50.948;3.946;2023-03-01T03:06:55;15.88;;;11.40;;
31210;SDS011;17836;50.948;3.946;2023-03-01T03:09:20;12.43;;;10.30;;
31210;SDS011;17836;50.948;3.946;2023-03-01T03:11:45;12.60;;;10.90;;
31210;SDS011;17836;50.948;3.946;2023-03-01T03:14:12;14.63;;;10.63;;
31210;SDS011;17836;50.948;3.946;2023-03-01T03:16:41;13.52;;;10.45;;
31210;SDS011;17836;50.948;3.946;2023-03-01T03:19:07;12.25;;;10.32;;
31210;SDS011;17836;50.948;3.946;2023-03-01T03:21:32;16.30;;;11.50;;
31210;SDS011;17836;50.948;3.946;2023-03-01T03:24:00;13.65;;;10.60;;
31210;SDS011;17836;50.948;3.946;2023-03-01T03:26:26;12.80;;;9.75;;
31210;SDS011;17836;50.948;3.946;2023-03-01T03:28:51;12.95;;;10.45;;
31210;SDS011;17836;50.948;3.946;2023-03-01T03:31:16;13.38;;;10.27;;
31210;SDS011;17836;50.948;3.946;2023-03-01T03:33:42;14.07;;;10.85;;
31210;SDS011;17836;50.948;3.946;2023-03-01T03:36:07;13.32;;;10.88;;
31210;SDS011;17836;50.948;3.946;2023-03-01T03:38:38;13.13;;;11.35;;
31210;SDS011;17836;50.948;3.946;2023-03-01T03:41:04;12.75;;;11.20;;
31210;SDS011;17836;50.948;3.946;2023-03-01T03:43:31;18.27;;;11.43;;
31210;SDS011;17836;50.948;3.946;2023-03-01T03:45:56;14.07;;;11.18;;
31210;SDS011;17836;50.948;3.946;2023-03-01T03:48:25;14.45;;;10.85;;
31210;SDS011;17836;50.948;3.946;2023-03-01T03:50:51;17.80;;;11.70;;
31210;SDS011;17836;50.948;3.946;2023-03-01T03:53:17;13.80;;;11.43;;
31210;SDS011;17836;50.948;3.946;2023-03-01T03:55:43;11.90;;;10.35;;
31210;SDS011;17836;50.948;3.946;2023-03-01T03:58:09;21.27;;;11.80;;
31210;SDS011;17836;50.948;3.946;2023-03-01T04:00:36;14.80;;;12.45;;
31210;SDS011;17836;50.948;3.946;2023-03-01T04:03:01;14.77;;;11.57;;
31210;SDS011;17836;50.948;3.946;2023-03-01T04:05:27;16.75;;;11.32;;
31210;SDS011;17836;50.948;3.946;2023-03-01T04:07:52;17.20;;;12.30;;
31210;SDS011;17836;50.948;3.946;2023-03-01T04:10:26;15.85;;;12.15;;
31210;SDS011;17836;50.948;3.946;2023-03-01T04:12:51;16.00;;;12.88;;
31210;SDS011;17836;50.948;3.946;2023-03-01T04:15:17;14.82;;;11.70;;
31210;SDS011;17836;50.948;3.946;2023-03-01T04:17:43;15.73;;;11.90;;
31210;SDS011;17836;50.948;3.946;2023-03-01T04:20:13;17.77;;;12.18;;
31210;SDS011;17836;50.948;3.946;2023-03-01T04:22:39;17.58;;;13.07;;
31210;SDS011;17836;50.948;3.946;2023-03-01T04:25:05;14.25;;;12.18;;
31210;SDS011;17836;50.948;3.946;2023-03-01T04:27:32;15.35;;;12.88;;
31210;SDS011;17836;50.948;3.946;2023-03-01T04:29:57;16.35;;;12.75;;
31210;SDS011;17836;50.948;3.946;2023-03-01T04:32:22;16.58;;;12.68;;
31210;SDS011;17836;50.948;3.946;2023-03-01T04:34:48;17.15;;;13.35;;
31210;SDS011;17836;50.948;3.946;2023-03-01T04:37:13;14.35;;;12.82;;
31210;SDS011;17836;50.948;3.946;2023-03-01T04:39:50;14.55;;;12.23;;
31210;SDS011;17836;50.948;3.946;2023-03-01T04:42:15;15.52;;;13.52;;
31210;SDS011;17836;50.948;3.946;2023-03-01T04:44:41;15.48;;;12.98;;
31210;SDS011;17836;50.948;3.946;2023-03-01T04:47:07;15.10;;;12.68;;
31210;SDS011;17836;50.948;3.946;2023-03-01T04:49:32;18.17;;;14.27;;
31210;SDS011;17836;50.948;3.946;2023-03-01T04:51:58;17.85;;;13.95;;
31210;SDS011;17836;50.948;3.946;2023-03-01T04:54:30;16.20;;;13.07;;
31210;SDS011;17836;50.948;3.946;2023-03-01T04:57:15;20.48;;;14.90;;
31210;SDS011;17836;50.948;3.946;2023-03-01T04:59:40;17.23;;;13.07;;
31210;SDS011;17836;50.948;3.946;2023-03-01T05:02:05;15.82;;;13.57;;
31210;SDS011;17836;50.948;3.946;2023-03-01T05:04:31;19.92;;;13.90;;
31210;SDS011;17836;50.948;3.946;2023-03-01T05:06:56;16.98;;;14.07;;
31210;SDS011;17836;50.948;3.946;2023-03-01T05:09:23;22.77;;;16.27;;
31210;SDS011;17836;50.948;3.946;2023-03-01T05:11:51;21.80;;;14.93;;
31210;SDS011;17836;50.948;3.946;2023-03-01T05:14:16;17.63;;;15.18;;
31210;SDS011;17836;50.948;3.946;2023-03-01T05:16:42;23.77;;;16.40;;
31210;SDS011;17836;50.948;3.946;2023-03-01T05:19:07;20.98;;;16.20;;
31210;SDS011;17836;50.948;3.946;2023-03-01T05:21:47;21.40;;;16.38;;
31210;SDS011;17836;50.948;3.946;2023-03-01T05:24:31;18.88;;;15.52;;
31210;SDS011;17836;50.948;3.946;2023-03-01T05:26:57;20.85;;;16.25;;
31210;SDS011;17836;50.948;3.946;2023-03-01T05:29:23;26.27;;;17.48;;
31210;SDS011;17836;50.948;3.946;2023-03-01T05:34:39;24.83;;;16.17;;
31210;SDS011;17836;50.948;3.946;2023-03-01T05:37:05;27.90;;;17.75;;
31210;SDS011;17836;50.948;3.946;2023-03-01T05:39:32;21.13;;;16.38;;
31210;SDS011;17836;50.948;3.946;2023-03-01T05:41:59;23.63;;;16.70;;
31210;SDS011;17836;50.948;3.946;2023-03-01T05:44:24;21.38;;;15.80;;
31210;SDS011;17836;50.948;3.946;2023-03-01T05:46:50;23.42;;;16.08;;
31210;SDS011;17836;50.948;3.946;2023-03-01T05:49:15;23.25;;;16.02;;
31210;SDS011;17836;50.948;3.946;2023-03-01T05:51:41;20.77;;;15.73;;
31210;SDS011;17836;50.948;3.946;2023-03-01T05:54:07;23.60;;;16.75;;
31210;SDS011;17836;50.948;3.946;2023-03-01T05:56:39;19.60;;;15.45;;
31210;SDS011;17836;50.948;3.946;2023-03-01T05:59:05;20.65;;;15.77;;
31210;SDS011;17836;50.948;3.946;2023-03-01T06:01:39;22.42;;;16.80;;
31210;SDS011;17836;50.948;3.946;2023-03-01T06:04:04;28.63;;;18.05;;
31210;SDS011;17836;50.948;3.946;2023-03-01T06:06:36;20.38;;;16.02;;
31210;SDS011;17836;50.948;3.946;2023-03-01T06:09:05;22.90;;;16.10;;
31210;SDS011;17836;50.948;3.946;2023-03-01T06:11:35;21.35;;;16.40;;
31210;SDS011;17836;50.948;3.946;2023-03-01T06:14:00;22.70;;;15.77;;
31210;SDS011;17836;50.948;3.946;2023-03-01T06:16:26;22.88;;;17.25;;
31210;SDS011;17836;50.948;3.946;2023-03-01T06:18:53;24.20;;;16.95;;
31210;SDS011;17836;50.948;3.946;2023-03-01T06:21:18;23.85;;;17.45;;
31210;SDS011;17836;50.948;3.946;2023-03-01T06:23:44;24.77;;;16.60;;
31210;SDS011;17836;50.948;3.946;2023-03-01T06:26:09;24.85;;;16.60;;
31210;SDS011;17836;50.948;3.946;2023-03-01T06:28:35;21.88;;;15.90;;
31210;SDS011;17836;50.948;3.946;2023-03-01T06:31:00;21.48;;;15.75;;
31210;SDS011;17836;50.948;3.946;2023-03-01T06:33:35;23.00;;;16.75;;
31210;SDS011;17836;50.948;3.946;2023-03-01T06:36:01;25.77;;;15.77;;
31210;SDS011;17836;50.948;3.946;2023-03-01T06:38:26;28.35;;;18.63;;
31210;SDS011;17836;50.948;3.946;2023-03-01T06:40:52;24.95;;;17.52;;
31210;SDS011;17836;50.948;3.946;2023-03-01T06:43:18;27.20;;;17.52;;
31210;SDS011;17836;50.948;3.946;2023-03-01T06:45:44;22.67;;;16.95;;
31210;SDS011;17836;50.948;3.946;2023-03-01T06:48:10;27.20;;;17.20;;
31210;SDS011;17836;50.948;3.946;2023-03-01T06:50:35;22.15;;;17.40;;
31210;SDS011;17836;50.948;3.946;2023-03-01T06:53:02;29.65;;;16.55;;
31210;SDS011;17836;50.948;3.946;2023-03-01T06:55:28;22.50;;;15.93;;
31210;SDS011;17836;50.948;3.946;2023-03-01T06:57:56;26.90;;;15.70;;
31210;SDS011;17836;50.948;3.946;2023-03-01T07:00:22;27.48;;;17.90;;
31210;SDS011;17836;50.948;3.946;2023-03-01T07:02:47;21.05;;;16.63;;
31210;SDS011;17836;50.948;3.946;2023-03-01T07:05:13;23.40;;;17.13;;
31210;SDS011;17836;50.948;3.946;2023-03-01T07:07:38;28.77;;;17.25;;
31210;SDS011;17836;50.948;3.946;2023-03-01T07:10:04;23.17;;;16.38;;
31210;SDS011;17836;50.948;3.946;2023-03-01T07:12:30;27.55;;;18.83;;
31210;SDS011;17836;50.948;3.946;2023-03-01T07:14:55;26.88;;;17.60;;
31210;SDS011;17836;50.948;3.946;2023-03-01T07:17:20;25.95;;;17.95;;
31210;SDS011;17836;50.948;3.946;2023-03-01T07:19:45;26.90;;;17.48;;
31210;SDS011;17836;50.948;3.946;2023-03-01T07:22:11;24.20;;;17.92;;
31210;SDS011;17836;50.948;3.946;2023-03-01T07:24:36;27.23;;;17.63;;
31210;SDS011;17836;50.948;3.946;2023-03-01T07:27:01;24.63;;;18.00;;
31210;SDS011;17836;50.948;3.946;2023-03-01T07:29:26;60.28;;;38.33;;
31210;SDS011;17836;50.948;3.946;2023-03-01T07:31:53;35.75;;;22.73;;
31210;SDS011;17836;50.948;3.946;2023-03-01T07:34:19;35.00;;;20.40;;
31210;SDS011;17836;50.948;3.946;2023-03-01T07:36:44;27.92;;;17.92;;
31210;SDS011;17836;50.948;3.946;2023-03-01T07:39:10;32.97;;;21.25;;
31210;SDS011;17836;50.948;3.946;2023-03-01T07:41:35;29.58;;;18.42;;
31210;SDS011;17836;50.948;3.946;2023-03-01T07:44:01;26.80;;;17.33;;
31210;SDS011;17836;50.948;3.946;2023-03-01T07:46:26;27.00;;;17.73;;
31210;SDS011;17836;50.948;3.946;2023-03-01T07:48:51;27.42;;;19.08;;
31210;SDS011;17836;50.948;3.946;2023-03-01T07:51:17;26.27;;;16.70;;
31210;SDS011;17836;50.948;3.946;2023-03-01T07:53:44;28.50;;;18.05;;
31210;SDS011;17836;50.948;3.946;2023-03-01T07:56:10;23.25;;;16.63;;
31210;SDS011;17836;50.948;3.946;2023-03-01T07:58:37;26.05;;;16.98;;
31210;SDS011;17836;50.948;3.946;2023-03-01T08:01:06;20.08;;;14.70;;
31210;SDS011;17836;50.948;3.946;2023-03-01T08:03:43;15.98;;;13.52;;
31210;SDS011;17836;50.948;3.946;2023-03-01T08:06:10;20.20;;;13.45;;
31210;SDS011;17836;50.948;3.946;2023-03-01T08:08:36;18.92;;;13.00;;
31210;SDS011;17836;50.948;3.946;2023-03-01T08:11:02;18.45;;;13.55;;
31210;SDS011;17836;50.948;3.946;2023-03-01T08:13:28;17.88;;;13.63;;
31210;SDS011;17836;50.948;3.946;2023-03-01T08:15:54;16.50;;;13.45;;
31210;SDS011;17836;50.948;3.946;2023-03-01T08:18:22;15.55;;;12.27;;
31210;SDS011;17836;50.948;3.946;2023-03-01T08:20:47;17.55;;;12.00;;
31210;SDS011;17836;50.948;3.946;2023-03-01T08:23:13;16.63;;;13.20;;
31210;SDS011;17836;50.948;3.946;2023-03-01T08:25:38;18.83;;;13.63;;
31210;SDS011;17836;50.948;3.946;2023-03-01T08:28:03;19.60;;;11.52;;
31210;SDS011;17836;50.948;3.946;2023-03-01T08:30:29;14.43;;;10.60;;
31210;SDS011;17836;50.948;3.946;2023-03-01T08:32:54;15.70;;;11.18;;
31210;SDS011;17836;50.948;3.946;2023-03-01T08:35:22;17.48;;;11.48;;
31210;SDS011;17836;50.948;3.946;2023-03-01T08:37:48;19.52;;;11.45;;
31210;SDS011;17836;50.948;3.946;2023-03-01T08:40:13;15.18;;;11.35;;
31210;SDS011;17836;50.948;3.946;2023-03-01T08:42:39;14.73;;;11.55;;
31210;SDS011;17836;50.948;3.946;2023-03-01T08:45:05;14.27;;;11.73;;
31210;SDS011;17836;50.948;3.946;2023-03-01T08:47:31;18.95;;;12.13;;
31210;SDS011;17836;50.948;3.946;2023-03-01T08:49:58;13.73;;;11.27;;
31210;SDS011;17836;50.948;3.946;2023-03-01T08:52:23;19.67;;;11.98;;
31210;SDS011;17836;50.948;3.946;2023-03-01T08:54:58;12.98;;;10.63;;
31210;SDS011;17836;50.948;3.946;2023-03-01T08:57:26;13.45;;;9.95;;
31210;SDS011;17836;50.948;3.946;2023-03-01T08:59:51;12.65;;;10.15;;
31210;SDS011;17836;50.948;3.946;2023-03-01T09:02:17;13.18;;;10.68;;
31210;SDS011;17836;50.948;3.946;2023-03-01T09:04:43;13.02;;;9.82;;
31210;SDS011;17836;50.948;3.946;2023-03-01T09:07:09;13.40;;;10.40;;
31210;SDS011;17836;50.948;3.946;2023-03-01T09:09:34;11.52;;;9.75;;
31210;SDS011;17836;50.948;3.946;2023-03-01T09:12:00;19.48;;;10.95;;
31210;SDS011;17836;50.948;3.946;2023-03-01T09:14:25;13.23;;;9.93;;
31210;SDS011;17836;50.948;3.946;2023-03-01T09:16:50;10.98;;;9.02;;
31210;SDS011;17836;50.948;3.946;2023-03-01T09:19:18;18.38;;;9.80;;
31210;SDS011;17836;50.948;3.946;2023-03-01T09:21:43;10.80;;;9.25;;
31210;SDS011;17836;50.948;3.946;2023-03-01T09:24:21;11.35;;;9.55;;
31210;SDS011;17836;50.948;3.946;2023-03-01T09:26:46;11.75;;;8.95;;
31210;SDS011;17836;50.948;3.946;2023-03-01T09:29:16;13.27;;;8.52;;
31210;SDS011;17836;50.948;3.946;2023-03-01T09:31:42;11.75;;;8.50;;
31210;SDS011;17836;50.948;3.946;2023-03-01T09:34:08;11.98;;;9.10;;
31210;SDS011;17836;50.948;3.946;2023-03-01T09:36:33;15.77;;;9.88;;
31210;SDS011;17836;50.948;3.946;2023-03-01T09:38:58;11.25;;;8.38;;
31210;SDS011;17836;50.948;3.946;2023-03-01T09:43:51;33.95;;;10.57;;
31210;SDS011;17836;50.948;3.946;2023-03-01T09:46:22;13.32;;;9.75;;
31210;SDS011;17836;50.948;3.946;2023-03-01T09:48:58;10.68;;;9.10;;
31210;SDS011;17836;50.948;3.946;2023-03-01T09:51:29;8.98;;;8.18;;
31210;SDS011;17836;50.948;3.946;2023-03-01T09:53:55;10.30;;;9.32;;
31210;SDS011;17836;50.948;3.946;2023-03-01T09:56:24;11.18;;;9.73;;
31210;SDS011;17836;50.948;3.946;2023-03-01T09:59:04;9.98;;;8.23;;
31210;SDS011;17836;50.948;3.946;2023-03-01T10:01:35;9.65;;;8.73;;
31210;SDS011;17836;50.948;3.946;2023-03-01T10:06:28;10.40;;;8.55;;
31210;SDS011;17836;50.948;3.946;2023-03-01T10:08:56;10.45;;;9.45;;
31210;SDS011;17836;50.948;3.946;2023-03-01T10:11:26;10.13;;;8.77;;
31210;SDS011;17836;50.948;3.946;2023-03-01T10:13:55;12.57;;;8.50;;
31210;SDS011;17836;50.948;3.946;2023-03-01T10:16:27;10.90;;;8.88;;
31210;SDS011;17836;50.948;3.946;2023-03-01T10:18:55;17.55;;;9.98;;
31210;SDS011;17836;50.948;3.946;2023-03-01T10:21:23;11.63;;;9.20;;
31210;SDS011;17836;50.948;3.946;2023-03-01T10:23:51;13.43;;;9.50;;
31210;SDS011;17836;50.948;3.946;2023-03-01T10:26:35;12.10;;;9.00;;
31210;SDS011;17836;50.948;3.946;2023-03-01T10:29:05;12.57;;;9.23;;
31210;SDS011;17836;50.948;3.946;2023-03-01T10:34:07;10.05;;;9.05;;
31210;SDS011;17836;50.948;3.946;2023-03-01T10:36:33;9.60;;;8.60;;
31210;SDS011;17836;50.948;3.946;2023-03-01T10:38:58;10.02;;;8.93;;
31210;SDS011;17836;50.948;3.946;2023-03-01T10:41:26;11.45;;;8.52;;
31210;SDS011;17836;50.948;3.946;2023-03-01T10:43:53;10.00;;;9.00;;
31210;SDS011;17836;50.948;3.946;2023-03-01T10:46:37;9.77;;;8.43;;
31210;SDS011;17836;50.948;3.946;2023-03-01T10:51:39;9.52;;;8.63;;
31210;SDS011;17836;50.948;3.946;2023-03-01T10:54:06;11.65;;;8.90;;
31210;SDS011;17836;50.948;3.946;2023-03-01T10:56:47;17.17;;;9.93;;
31210;SDS011;17836;50.948;3.946;2023-03-01T10:59:29;12.32;;;9.32;;
31210;SDS011;17836;50.948;3.946;2023-03-01T11:02:01;12.85;;;9.20;;
31210;SDS011;17836;50.948;3.946;2023-03-01T11:04:27;10.70;;;8.77;;
31210;SDS011;17836;50.948;3.946;2023-03-01T11:06:57;10.40;;;8.68;;
31210;SDS011;17836;50.948;3.946;2023-03-01T11:09:23;9.00;;;8.10;;
31210;SDS011;17836;50.948;3.946;2023-03-01T11:11:53;11.02;;;8.85;;
31210;SDS011;17836;50.948;3.946;2023-03-01T11:14:22;12.40;;;8.55;;
31210;SDS011;17836;50.948;3.946;2023-03-01T11:16:48;12.75;;;8.50;;
31210;SDS011;17836;50.948;3.946;2023-03-01T11:19:16;13.10;;;9.80;;
31210;SDS011;17836;50.948;3.946;2023-03-01T11:21:43;10.95;;;8.70;;
31210;SDS011;17836;50.948;3.946;2023-03-01T11:24:12;12.40;;;9.15;;
31210;SDS011;17836;50.948;3.946;2023-03-01T11:26:41;9.95;;;8.52;;
31210;SDS011;17836;50.948;3.946;2023-03-01T11:29:12;11.32;;;8.55;;
31210;SDS011;17836;50.948;3.946;2023-03-01T11:31:41;8.32;;;7.53;;
31210;SDS011;17836;50.948;3.946;2023-03-01T11:34:09;11.65;;;8.50;;
31210;SDS011;17836;50.948;3.946;2023-03-01T11:36:51;8.60;;;7.73;;
31210;SDS011;17836;50.948;3.946;2023-03-01T11:42:00;8.73;;;7.93;;
31210;SDS011;17836;50.948;3.946;2023-03-01T11:44:34;9.80;;;8.82;;
31210;SDS011;17836;50.948;3.946;2023-03-01T11:52:33;11.02;;;8.18;;
31210;SDS011;17836;50.948;3.946;2023-03-01T11:55:25;11.60;;;8.75;;
31210;SDS011;17836;50.948;3.946;2023-03-01T12:08:19;10.40;;;7.65;;
31210;SDS011;17836;50.948;3.946;2023-03-01T12:28:58;8.10;;;7.40;;
31210;SDS011;17836;50.948;3.946;2023-03-01T12:31:33;9.00;;;8.13;;
31210;SDS011;17836;50.948;3.946;2023-03-01T12:37:04;10.18;;;7.25;;
31210;SDS011;17836;50.948;3.946;2023-03-01T12:45:16;9.15;;;8.15;;
31210;SDS011;17836;50.948;3.946;2023-03-01T12:50:35;12.05;;;8.00;;
31210;SDS011;17836;50.948;3.946;2023-03-01T12:53:15;8.73;;;7.82;;
31210;SDS011;17836;50.948;3.946;2023-03-01T12:55:48;11.23;;;8.65;;
31210;SDS011;17836;50.948;3.946;2023-03-01T13:00:53;12.68;;;8.45;;
31210;SDS011;17836;50.948;3.946;2023-03-01T13:06:08;9.43;;;8.45;;
31210;SDS011;17836;50.948;3.946;2023-03-01T13:08:44;8.15;;;7.00;;
31210;SDS011;17836;50.948;3.946;2023-03-01T13:11:21;9.52;;;8.00;;
31210;SDS011;17836;50.948;3.946;2023-03-01T13:13:47;7.55;;;6.85;;
31210;SDS011;17836;50.948;3.946;2023-03-01T13:19:08;7.38;;;6.68;;
31210;SDS011;17836;50.948;3.946;2023-03-01T13:21:35;8.80;;;7.57;;
31210;SDS011;17836;50.948;3.946;2023-03-01T13:24:00;7.95;;;7.15;;
31210;SDS011;17836;50.948;3.946;2023-03-01T13:26:25;9.13;;;7.65;;
31210;SDS011;17836;50.948;3.946;2023-03-01T13:28:51;7.63;;;6.82;;
31210;SDS011;17836;50.948;3.946;2023-03-01T13:36:11;10.60;;;6.75;;
31210;SDS011;17836;50.948;3.946;2023-03-01T13:38:58;7.78;;;6.95;;
31210;SDS011;17836;50.948;3.946;2023-03-01T13:49:23;9.18;;;7.32;;
31210;SDS011;17836;50.948;3.946;2023-03-01T13:51:49;8.90;;;7.05;;
31210;SDS011;17836;50.948;3.946;2023-03-01T13:54:16;7.38;;;6.65;;
31210;SDS011;17836;50.948;3.946;2023-03-01T13:56:41;6.90;;;6.28;;
31210;SDS011;17836;50.948;3.946;2023-03-01T13:59:16;9.98;;;6.80;;
31210;SDS011;17836;50.948;3.946;2023-03-01T14:01:41;9.02;;;7.13;;
31210;SDS011;17836;50.948;3.946;2023-03-01T14:04:27;8.60;;;6.70;;
31210;SDS011;17836;50.948;3.946;2023-03-01T14:07:08;7.97;;;7.18;;
31210;SDS011;17836;50.948;3.946;2023-03-01T14:09:33;9.40;;;6.68;;
31210;SDS011;17836;50.948;3.946;2023-03-01T14:12:11;8.07;;;7.28;;
31210;SDS011;17836;50.948;3.946;2023-03-01T14:20:11;7.80;;;7.00;;
31210;SDS011;17836;50.948;3.946;2023-03-01T14:22:37;6.78;;;6.07;;
31210;SDS011;17836;50.948;3.946;2023-03-01T14:25:27;6.82;;;6.22;;
31210;SDS011;17836;50.948;3.946;2023-03-01T14:27:54;7.65;;;6.43;;
31210;SDS011;17836;50.948;3.946;2023-03-01T14:30:24;7.00;;;6.28;;
31210;SDS011;17836;50.948;3.946;2023-03-01T14:32:53;7.95;;;6.40;;
31210;SDS011;17836;50.948;3.946;2023-03-01T14:35:33;6.40;;;5.80;;
31210;SDS011;17836;50.948;3.946;2023-03-01T14:38:05;8.70;;;6.22;;
31210;SDS011;17836;50.948;3.946;2023-03-01T14:40:31;7.60;;;6.72;;
31210;SDS011;17836;50.948;3.946;2023-03-01T14:43:16;10.45;;;7.93;;
31210;SDS011;17836;50.948;3.946;2023-03-01T14:46:16;11.55;;;6.55;;
31210;SDS011;17836;50.948;3.946;2023-03-01T14:48:51;8.60;;;6.43;;
31210;SDS011;17836;50.948;3.946;2023-03-01T14:51:18;7.75;;;6.90;;
31210;SDS011;17836;50.948;3.946;2023-03-01T14:53:43;11.65;;;6.68;;
31210;SDS011;17836;50.948;3.946;2023-03-01T14:56:14;10.13;;;8.13;;
31210;SDS011;17836;50.948;3.946;2023-03-01T14:58:42;7.70;;;7.00;;
31210;SDS011;17836;50.948;3.946;2023-03-01T15:01:10;9.27;;;6.90;;
31210;SDS011;17836;50.948;3.946;2023-03-01T15:03:42;7.78;;;6.35;;
31210;SDS011;17836;50.948;3.946;2023-03-01T15:06:09;7.93;;;7.00;;
31210;SDS011;17836;50.948;3.946;2023-03-01T15:08:35;8.65;;;6.45;;
31210;SDS011;17836;50.948;3.946;2023-03-01T15:13:55;8.63;;;6.15;;
31210;SDS011;17836;50.948;3.946;2023-03-01T15:16:36;9.43;;;6.68;;
31210;SDS011;17836;50.948;3.946;2023-03-01T15:19:06;7.55;;;6.85;;
31210;SDS011;17836;50.948;3.946;2023-03-01T15:21:32;7.80;;;6.72;;
31210;SDS011;17836;50.948;3.946;2023-03-01T15:26:28;9.82;;;6.28;;
31210;SDS011;17836;50.948;3.946;2023-03-01T15:28:55;8.45;;;7.20;;
31210;SDS011;17836;50.948;3.946;2023-03-01T15:31:27;8.90;;;7.80;;
31210;SDS011;17836;50.948;3.946;2023-03-01T15:34:07;8.52;;;6.25;;
31210;SDS011;17836;50.948;3.946;2023-03-01T15:36:40;7.25;;;6.50;;
31210;SDS011;17836;50.948;3.946;2023-03-01T15:39:23;9.50;;;6.80;;
31210;SDS011;17836;50.948;3.946;2023-03-01T15:42:00;7.55;;;6.85;;
31210;SDS011;17836;50.948;3.946;2023-03-01T15:44:30;8.18;;;6.68;;
31210;SDS011;17836;50.948;3.946;2023-03-01T15:46:59;7.63;;;6.82;;
31210;SDS011;17836;50.948;3.946;2023-03-01T15:49:40;9.88;;;6.50;;
31210;SDS011;17836;50.948;3.946;2023-03-01T15:52:26;7.88;;;7.07;;
31210;SDS011;17836;50.948;3.946;2023-03-01T15:55:03;11.68;;;8.88;;
31210;SDS011;17836;50.948;3.946;2023-03-01T15:57:30;8.57;;;7.78;;
31210;SDS011;17836;50.948;3.946;2023-03-01T16:00:04;7.53;;;6.28;;
31210;SDS011;17836;50.948;3.946;2023-03-01T16:02:42;9.10;;;8.30;;
31210;SDS011;17836;50.948;3.946;2023-03-01T16:05:15;11.93;;;9.20;;
31210;SDS011;17836;50.948;3.946;2023-03-01T16:07:51;8.77;;;7.65;;
31210;SDS011;17836;50.948;3.946;2023-03-01T16:10:22;9.35;;;6.68;;
31210;SDS011;17836;50.948;3.946;2023-03-01T16:12:49;7.75;;;6.75;;
31210;SDS011;17836;50.948;3.946;2023-03-01T16:15:23;8.48;;;7.68;;
31210;SDS011;17836;50.948;3.946;2023-03-01T16:17:49;10.00;;;7.20;;
31210;SDS011;17836;50.948;3.946;2023-03-01T16:20:23;13.88;;;6.75;;
31210;SDS011;17836;50.948;3.946;2023-03-01T16:22:49;7.97;;;7.18;;
31210;SDS011;17836;50.948;3.946;2023-03-01T16:25:20;7.32;;;6.60;;